Flight Track Log - Related Links

Times and Time Zones

All times are in EST time to prevent confusion due to time zone crossing. See the UAL3826 flight status page for this flight to view local times or setup timezone preferences in your user account.


Time Position Orientation Groundspeed Altitude Reporting Facility
EST Latitude Longitude Course Direction KTS MPH feet Rate Location/Type
Sun 10:05:53 AM 43.1081 -76.1306 308° West 165 190 1,000  Level Boston Center
Sun 10:06:58 AM 43.1136 -76.2111 275° West 203 234 3,600 2,104 Climbing Boston Center
Sun 10:07:10 AM 43.1125 -76.2128 228° Southwest 189 217 3,700 2,557 Climbing Boston Center
Sun 10:07:59 AM 43.1428 -76.2906 298° West 243 280 6,200 2,557 Climbing Boston Center
Sun 10:08:11 AM 43.1439 -76.2908 350° North 223 257 6,300 2,466 Climbing Boston Center
Sun 10:09:00 AM 43.0886 -76.6038 286° West  Level Estimated
Sun 10:09:12 AM 43.1769 -76.3717 299° West 241 277 9,200  Level Boston Center
Sun 10:10:00 AM 43.0826 -76.7281 280° West  Level Estimated
Sun 10:10:06 AM 43.2031 -76.4650 291° West 268 308 10,400  Level Cleveland Center
Sun 10:11:00 AM 43.1381 -76.8268 308° West  Level FlightAware Approximate
Sun 10:11:07 AM 43.2219 -76.5811 283° West 302 348 11,800  Level Cleveland Center
Sun 10:12:09 AM 43.2428 -76.7039 283° West 322 371 13,800 1,951 Climbing Cleveland Center
Sun 10:13:10 AM 43.2617 -76.8225 282° West 322 371 15,800 1,902 Climbing Cleveland Center
Sun 10:14:12 AM 43.2817 -76.9411 283° West 319 367 17,700 1,512 Climbing Cleveland Center
Sun 10:15:13 AM 43.3008 -77.0606 282° West 311 358 18,900 1,415 Climbing Cleveland Center
Sun 10:16:15 AM 43.3078 -77.1717 275° West 300 345 20,600 1,854 Climbing Cleveland Center
Sun 10:17:16 AM 43.3014 -77.3044 266° West 291 335 22,700 1,756 Climbing Cleveland Center
Sun 10:18:18 AM 43.2961 -77.4114 266° West 283 326 24,200 1,415 Climbing Cleveland Center
Sun 10:19:19 AM 43.2903 -77.5158 266° West 278 320 25,600 1,366 Climbing Cleveland Center
Sun 10:20:21 AM 43.2844 -77.6189 266° West 274 315 27,000 1,366 Climbing Cleveland Center
Sun 10:21:22 AM 43.2800 -77.7203 267° West 268 308 28,400 1,268 Climbing Cleveland Center
Sun 10:22:24 AM 43.2742 -77.8186 265° West 261 300 29,600 1,171 Climbing Cleveland Center
Sun 10:23:25 AM 43.2675 -77.9144 265° West 255 293 30,800 1,317 Climbing Cleveland Center
Sun 10:24:27 AM 43.2619 -78.0292 266° West 253 291 32,300 1,268 Climbing Cleveland Center
Sun 10:25:28 AM 43.2558 -78.1206 265° West 247 284 33,400 829 Climbing Cleveland Center
Sun 10:26:30 AM 43.2497 -78.2178 265° West 253 291 34,000 293 Climbing Cleveland Center
Sun 10:27:31 AM 43.2447 -78.3172 266° West 262 302 34,000  Level Cleveland Center
Sun 10:28:33 AM 43.2383 -78.4203 265° West 269 310 34,000  Level Cleveland Center
Sun 10:29:35 AM 43.2306 -78.5344 265° West 297 342 34,000  Level Cleveland Center
Sun 10:30:36 AM 43.2233 -78.6481 265° West 301 346 34,000  Level Cleveland Center
Sun 10:31:38 AM 43.2150 -78.7853 265° West 302 348 34,000  Level Cleveland Center
Sun 10:32:40 AM 43.2075 -78.8989 265° West 300 345 34,000  Level Cleveland Center
Sun 10:33:41 AM 43.1997 -79.0125 265° West 301 346 34,000  Level Cleveland Center
Sun 10:34:50 AM 43.1833 -79.1333 260° West 300 345 34,000  Level Toronto Center
Sun 10:35:50 AM 43.1833 -79.2500 270° West 310 357 34,000  Level Toronto Center
Sun 10:36:50 AM 43.1667 -79.3667 259° West 310 357 34,000  Level Toronto Center
Sun 10:37:50 AM 43.1500 -79.5000 260° West 310 357 34,000  Level Toronto Center
Sun 10:38:50 AM 43.1500 -79.6167 270° West 310 357 34,000  Level Toronto Center
Sun 10:39:50 AM 43.1333 -79.7167 257° West 320 368 34,000  Level Toronto Center
Sun 10:40:50 AM 43.1333 -79.8333 270° West 320 368 34,000  Level Toronto Center
Sun 10:41:50 AM 43.1167 -79.9833 261° West 310 357 34,000  Level Toronto Center
Sun 10:42:50 AM 43.1167 -80.0833 270° West 320 368 34,000  Level Toronto Center
Sun 10:43:50 AM 43.1000 -80.2000 259° West 320 368 34,000  Level Toronto Center
Sun 10:44:50 AM 43.1000 -80.3167 270° West 320 368 34,000  Level Toronto Center
Sun 10:45:50 AM 43.0833 -80.4333 259° West 320 368 34,000  Level Toronto Center
Sun 10:46:50 AM 43.0833 -80.5667 270° West 320 368 34,000  Level Toronto Center
Sun 10:47:50 AM 43.0667 -80.6833 259° West 310 357 34,000  Level Toronto Center
Sun 10:48:50 AM 43.0667 -80.8000 270° West 310 357 34,000  Level Toronto Center
Sun 10:49:50 AM 43.0333 -80.9167 249° West 310 357 34,000  Level Toronto Center
Sun 10:50:50 AM 43.0333 -81.0167 270° West 310 357 34,000  Level Toronto Center
Sun 10:51:50 AM 43.0167 -81.1333 259° West 310 357 34,000  Level Toronto Center
Sun 10:52:50 AM 43.0167 -81.2667 270° West 310 357 34,000  Level Toronto Center
Sun 10:53:50 AM 43.0167 -81.3833 270° West 300 345 34,000  Level Toronto Center
Sun 10:54:50 AM 43.0167 -81.5000 270° West 300 345 34,000  Level Toronto Center
Sun 10:55:50 AM 43.0167 -81.6167 270° West 300 345 34,000  Level Toronto Center
Sun 10:56:50 AM 43.0167 -81.7333 270° West 300 345 34,000  Level Toronto Center
Sun 10:57:50 AM 43.0167 -81.8500 270° West 300 345 34,000  Level Toronto Center
Sun 10:58:50 AM 43.0000 -81.9667 259° West 300 345 34,000  Level Toronto Center
Sun 10:59:50 AM 43.0000 -82.0667 270° West 300 345 34,000  Level Toronto Center
Sun 11:00:50 AM 43.0000 -82.1833 270° West 300 345 34,000  Level Toronto Center
Sun 11:01:50 AM 43.0000 -82.3000 270° West 300 345 34,000  Level Toronto Center
Sun 11:02:50 AM 43.0000 -82.4167 270° West 300 345 34,000 -50 Level Toronto Center
Sun 11:03:50 AM 43.0000 -82.5333 270° West 300 345 33,900 -800 Descending Toronto Center
Sun 11:04:50 AM 42.9833 -82.6500 259° West 300 345 32,400 -974 Descending Toronto Center
Sun 11:05:47 AM 43.0006 -82.7456 284° West 304 350 32,000 -202 Descending Cleveland Center
Sun 11:06:49 AM 42.9978 -82.8622 268° West 308 354 32,000  Level Cleveland Center
Sun 11:07:50 AM 42.9928 -83.0011 267° West 307 353 32,000  Level Cleveland Center
Sun 11:08:52 AM 42.9886 -83.1167 267° West 307 353 32,000  Level Cleveland Center
Sun 11:09:53 AM 42.9853 -83.2331 268° West 307 353 32,000  Level Cleveland Center
Sun 11:10:55 AM 42.9817 -83.3489 268° West 307 353 32,000  Level Cleveland Center
Sun 11:11:56 AM 42.9772 -83.4644 267° West 308 354 32,000  Level Cleveland Center
Sun 11:12:58 AM 42.9731 -83.5783 267° West 305 351 32,000  Level Cleveland Center
Sun 11:13:59 AM 42.9692 -83.6931 267° West 304 350 32,000  Level Cleveland Center
Sun 11:15:01 AM 42.9583 -83.8294 264° West 303 349 32,000  Level Cleveland Center
Sun 11:16:02 AM 42.9481 -83.9425 263° West 303 349 32,000  Level Cleveland Center
Sun 11:17:03 AM 42.9372 -84.0544 263° West 300 345 32,000  Level Cleveland Center
Sun 11:18:05 AM 42.9256 -84.1675 262° West 302 348 32,000  Level Cleveland Center
Sun 11:19:06 AM 42.9147 -84.2814 263° West 304 350 32,000  Level Cleveland Center
Sun 11:20:08 AM 42.9028 -84.4056 263° West 302 348 32,000  Level Cleveland Center
Sun 11:21:09 AM 42.8903 -84.5186 261° West 302 348 32,000  Level Cleveland Center
Sun 11:22:10 AM 42.8803 -84.6317 263° West 302 348 32,000  Level Cleveland Center
Sun 11:23:11 AM 42.8675 -84.7461 261° West 304 350 32,000  Level Cleveland Center
Sun 11:23:50 AM 42.8500 -84.8167 251° West 300 345 32,000  Level Toronto Center
Sun 11:24:37 AM 42.8517 -84.9061 271° West 305 351 32,000  Level Chicago Center
Sun 11:25:38 AM 42.8386 -85.0197 261° West 304 350 32,000  Level Chicago Center
Sun 11:26:39 AM 42.8267 -85.1339 262° West 305 351 32,000  Level Chicago Center
Sun 11:27:41 AM 42.8147 -85.2497 262° West 307 353 32,000  Level Chicago Center
Sun 11:28:42 AM 42.7989 -85.3875 261° West 307 353 32,000  Level Chicago Center
Sun 11:29:44 AM 42.7856 -85.5036 261° West 311 358 32,000 -585 Level Chicago Center
Sun 11:30:45 AM 42.7653 -85.6186 257° West 311 358 30,800 -1,561 Descending Chicago Center
Sun 11:31:47 AM 42.7442 -85.7339 256° West 313 360 28,800 -1,951 Descending Chicago Center
Sun 11:32:48 AM 42.7233 -85.8522 257° West 318 366 26,800 -1,951 Descending Chicago Center
Sun 11:33:50 AM 42.7011 -85.9764 256° West 332 382 24,800 -2,000 Descending Chicago Center
Sun 11:34:51 AM 42.6769 -86.1050 256° West 346 398 22,700 -2,115 Descending Chicago Center
Sun 11:35:52 AM 42.6544 -86.2297 256° West 340 391 20,500 -1,317 Descending Chicago Center
Sun 11:36:54 AM 42.6319 -86.3453 255° West 321 369 20,000 -244 Descending Chicago Center
Sun 11:37:55 AM 42.6094 -86.4622 255° West 319 367 20,000  Level Chicago Center
Sun 11:38:57 AM 42.5881 -86.5817 256° West 325 374 20,000  Level Chicago Center
Sun 11:39:58 AM 42.5633 -86.7183 256° West 332 382 20,000 -488 Level Chicago Center
Sun 11:41:00 AM 42.5331 -86.8344 251° West 329 379 19,000 -1,122 Descending Chicago Center
Sun 11:42:01 AM 42.5022 -86.9444 249° West 317 365 17,700 -1,951 Descending Chicago Center
Sun 11:43:03 AM 42.4697 -87.0575 249° West 298 343 15,000 -2,634 Descending Chicago Center
Sun 11:44:04 AM 42.4389 -87.1689 249° West 312 359 12,300 -1,951 Descending Chicago Center
Sun 11:45:06 AM 42.4097 -87.2758 250° West 306 352 11,000 -634 Descending Chicago Center
Sun 11:46:07 AM 42.3769 -87.3975 250° West 312 359 11,000  Level Chicago Center
Sun 11:47:08 AM 42.3411 -87.5069 246° West 319 367 11,000  Level Chicago Center
Sun 11:48:10 AM 42.2742 -87.5831 220° Southwest 314 361 11,000 -435 Level Chicago Center
Sun 11:49:12 AM 42.2092 -87.6592 221° Southwest 310 357 10,100 -488 Descending Chicago Center
Sun 11:50:13 AM 42.1447 -87.7328 220° Southwest 306 352 10,000 -51 Descending Chicago Center
Sun 11:51:09 AM 42.1000 -87.8333 239° Southwest 305 351 10,000 -346 Level Chicago TRACON
Sun 11:51:57 AM 42.1000 -87.9167 270° West 269 310 9,400 -1,158 Descending Chicago TRACON
Sun 11:53:03 AM 42.1000 -88.0167 270° West 253 291 7,800 -1,550 Descending Chicago TRACON
Sun 11:53:57 AM 42.1000 -88.1000 270° West 252 290 6,300 -1,537 Descending Chicago TRACON
Sun 11:55:04 AM 42.1000 -88.2167 270° West 257 296 4,700 -1,087 Descending Chicago TRACON
Sun 11:56:04 AM 42.0833 -88.3167 257° West 263 303 4,000 -316 Descending Chicago TRACON
Sun 11:56:58 AM 42.0833 -88.4000 270° West 271 312 4,100  Climbing Chicago TRACON
Sun 11:57:58 AM 42.0167 -88.4167 191° South 241 277 4,000 -50 Descending Chicago TRACON
Sun 11:58:58 AM 42.0000 -88.3333 105° East 238 274 4,000  Level Chicago TRACON
Sun 11:59:52 AM 42.0000 -88.2500 90° East 234 269 4,000  Level Chicago TRACON
Sun 12:00:28 PM 42.0017 -88.2081 87° East 234 269 4,000 -61 Level Chicago Center
Sun 12:01:30 PM 42.0022 -88.1250 89° East 229 264 3,900 -634 Descending Chicago Center
Sun 12:02:31 PM 42.0019 -88.0461 90° East 222 255 2,700 -976 Descending Chicago Center
Sun 12:03:33 PM 42.0025 -88.0011 89° East 165 190 1,900 -585 Descending Chicago Center
Sun 12:04:34 PM 42.0017 -87.9489 91° East 146 168 1,500 -393 Descending Chicago Center

Login

Don't have an account? Register now (free) for customized features, flight alerts, and more!